createdAt,value
2018-06-11T00:02:01.259Z,84.80
2018-06-11T00:04:30.973Z,85.10
2018-06-11T00:07:00.670Z,84.90
2018-06-11T00:09:30.373Z,85.30
2018-06-11T00:12:00.115Z,85.30
2018-06-11T00:14:29.844Z,85.30
2018-06-11T00:16:59.520Z,84.80
2018-06-11T00:19:29.227Z,85.00
2018-06-11T00:21:58.894Z,85.20
2018-06-11T00:24:28.594Z,85.60
2018-06-11T00:26:58.259Z,85.80
2018-06-11T00:29:27.935Z,86.10
2018-06-11T00:31:57.623Z,86.30
2018-06-11T00:34:27.315Z,86.50
2018-06-11T00:36:57.003Z,86.00
2018-06-11T00:39:26.724Z,86.20
2018-06-11T00:41:56.428Z,86.10
2018-06-11T00:44:26.147Z,86.00
2018-06-11T00:46:55.815Z,85.80
2018-06-11T00:49:25.540Z,85.90
2018-06-11T00:51:55.222Z,85.70
2018-06-11T00:54:25.145Z,85.50
2018-06-11T00:56:54.859Z,85.70
2018-06-11T00:59:24.559Z,85.90
2018-06-11T01:01:54.271Z,86.30
2018-06-11T01:04:23.963Z,85.90
2018-06-11T01:06:53.687Z,86.10
2018-06-11T01:09:23.379Z,86.20
2018-06-11T01:11:53.112Z,86.30
2018-06-11T01:14:22.796Z,86.60
2018-06-11T01:16:52.522Z,86.90
2018-06-11T01:19:22.250Z,87.00
2018-06-11T01:21:51.962Z,87.50
2018-06-11T01:24:21.667Z,87.70
2018-06-11T01:26:51.371Z,88.00
2018-06-11T01:29:21.076Z,88.10
2018-06-11T01:31:50.788Z,87.70
2018-06-11T01:34:20.468Z,87.20
2018-06-11T01:36:50.191Z,86.60
2018-06-11T01:39:19.903Z,86.50
2018-06-11T01:41:49.623Z,86.90
2018-06-11T01:44:19.314Z,86.80
2018-06-11T01:46:49.023Z,86.60
2018-06-11T01:49:18.710Z,86.60
2018-06-11T01:51:48.440Z,86.60
2018-06-11T01:54:18.114Z,86.40
2018-06-11T01:56:47.843Z,86.50
2018-06-11T01:59:17.547Z,86.30
2018-06-11T02:01:47.263Z,86.40
2018-06-11T02:04:16.952Z,86.70
2018-06-11T02:06:46.674Z,86.10
2018-06-11T02:09:16.355Z,86.10
2018-06-11T02:11:46.066Z,86.40
2018-06-11T02:14:15.759Z,86.80
2018-06-11T02:16:45.481Z,86.60
2018-06-11T02:19:15.147Z,87.00
2018-06-11T02:21:44.841Z,86.80
2018-06-11T02:24:14.524Z,86.80
2018-06-11T02:26:44.264Z,87.00
2018-06-11T02:29:13.955Z,87.30
2018-06-11T02:31:43.642Z,87.80
2018-06-11T02:34:13.324Z,88.30
2018-06-11T02:36:43.031Z,88.50
2018-06-11T02:39:12.715Z,88.40
2018-06-11T02:41:42.476Z,88.50
2018-06-11T02:44:12.150Z,88.40
2018-06-11T02:46:41.859Z,89.10
2018-06-11T02:49:11.555Z,88.80
2018-06-11T02:51:41.274Z,88.10
2018-06-11T02:54:10.939Z,88.00
2018-06-11T02:56:40.668Z,88.30
2018-06-11T02:59:10.380Z,88.10
2018-06-11T03:01:40.111Z,88.00
2018-06-11T03:04:09.803Z,87.90
2018-06-11T03:06:39.551Z,88.40
2018-06-11T03:09:09.251Z,88.80
2018-06-11T03:11:39.331Z,89.40
2018-06-11T03:14:09.050Z,89.40
2018-06-11T03:16:38.798Z,89.20
2018-06-11T03:19:08.499Z,88.90
2018-06-11T03:21:38.251Z,89.30
2018-06-11T03:24:07.965Z,89.10
2018-06-11T03:26:37.703Z,89.20
2018-06-11T03:29:07.403Z,88.80
2018-06-11T03:31:37.139Z,88.30
2018-06-11T03:34:06.856Z,88.40
2018-06-11T03:36:36.563Z,88.60
2018-06-11T03:39:08.307Z,89.40
2018-06-11T03:41:38.163Z,89.70
2018-06-11T03:44:07.863Z,89.90
2018-06-11T03:46:37.575Z,89.90
2018-06-11T03:49:07.307Z,89.40
2018-06-11T03:51:37.051Z,89.10
2018-06-11T03:54:07.164Z,88.60
2018-06-11T03:56:36.895Z,88.10
2018-06-11T03:59:07.859Z,88.40
2018-06-11T04:01:37.600Z,88.30
2018-06-11T04:04:07.479Z,88.30
2018-06-11T04:06:37.235Z,88.60
2018-06-11T04:09:07.911Z,88.80
2018-06-11T04:11:37.626Z,88.40
2018-06-11T04:14:07.343Z,89.00
2018-06-11T04:16:37.030Z,88.30
2018-06-11T04:19:06.735Z,88.20
2018-06-11T04:21:36.446Z,88.00
2018-06-11T04:24:07.873Z,87.90
2018-06-11T04:26:37.559Z,88.00
2018-06-11T04:29:07.255Z,88.30
2018-06-11T04:31:36.922Z,88.10
2018-06-11T04:34:06.979Z,88.00
2018-06-11T04:36:36.660Z,88.10
2018-06-11T04:39:07.514Z,88.20
2018-06-11T04:41:37.199Z,88.20
2018-06-11T04:44:06.940Z,88.20
2018-06-11T04:46:36.648Z,88.00
2018-06-11T04:49:06.367Z,88.00
2018-06-11T04:51:36.059Z,88.10
2018-06-11T04:54:05.755Z,88.20
2018-06-11T04:56:35.439Z,88.40
2018-06-11T04:59:05.146Z,88.30
2018-06-11T05:01:34.834Z,88.40
2018-06-11T05:04:04.533Z,89.70
2018-06-11T05:06:34.219Z,89.90
2018-06-11T05:09:04.887Z,89.80
2018-06-11T05:11:34.652Z,89.70
2018-06-11T05:14:04.351Z,89.20
2018-06-11T05:19:03.527Z,88.70
2018-06-11T05:21:33.233Z,88.70
2018-06-11T05:24:02.955Z,88.90
2018-06-11T05:26:32.635Z,88.70
2018-06-11T05:29:02.357Z,88.20
2018-06-11T05:31:32.022Z,87.80
2018-06-11T05:34:01.819Z,87.80
2018-06-11T05:36:31.519Z,87.60
2018-06-11T05:39:01.201Z,87.10
2018-06-11T05:41:30.895Z,87.00
2018-06-11T05:44:00.591Z,86.50
2018-06-11T05:46:30.272Z,86.30
2018-06-11T05:48:59.941Z,85.60
2018-06-11T05:51:29.608Z,83.70
2018-06-11T05:53:59.293Z,81.70
2018-06-11T05:56:29.149Z,81.00
2018-06-11T05:58:58.867Z,80.80
2018-06-11T06:01:28.551Z,80.30
2018-06-11T06:03:58.232Z,79.40
2018-06-11T06:06:27.943Z,79.00
2018-06-11T06:08:57.644Z,78.30
2018-06-11T06:11:27.328Z,78.30
2018-06-11T06:13:57.050Z,78.10
2018-06-11T06:16:26.729Z,77.20
2018-06-11T06:18:57.076Z,76.60
2018-06-11T06:21:26.762Z,76.80
2018-06-11T06:23:56.427Z,75.50
2018-06-11T06:26:26.088Z,74.90
2018-06-11T06:28:55.763Z,73.50
2018-06-11T06:31:25.408Z,73.20
2018-06-11T06:33:55.096Z,71.40
2018-06-11T06:36:25.395Z,73.60
2018-06-11T06:38:55.622Z,71.50
2018-06-11T06:41:25.278Z,71.80
2018-06-11T06:43:54.946Z,72.30
2018-06-11T06:46:24.599Z,71.60
2018-06-11T06:48:56.096Z,69.90
2018-06-11T06:51:26.067Z,69.80
2018-06-11T06:53:56.265Z,69.50
2018-06-11T06:56:26.028Z,68.20
2018-06-11T06:58:55.715Z,67.60
2018-06-11T07:01:25.422Z,67.90
2018-06-11T07:03:55.135Z,68.30
2018-06-11T07:06:24.819Z,68.80
2018-06-11T07:08:54.697Z,69.30
2018-06-11T07:11:24.384Z,68.90
2018-06-11T07:13:54.083Z,67.60
2018-06-11T07:16:23.771Z,67.10
2018-06-11T07:18:53.520Z,66.30
2018-06-11T07:21:23.219Z,65.10
2018-06-11T07:23:52.899Z,64.80
2018-06-11T07:26:22.675Z,65.70
2018-06-11T07:28:52.358Z,68.60
2018-06-11T07:31:22.126Z,69.10
2018-06-11T07:33:51.948Z,68.50
2018-06-11T07:36:21.719Z,68.00
2018-06-11T07:38:51.405Z,68.40
2018-06-11T07:41:21.091Z,68.40
2018-06-11T07:43:50.782Z,68.60
2018-06-11T07:46:20.503Z,68.80
2018-06-11T07:48:50.187Z,69.80
2018-06-11T07:51:19.913Z,70.00
2018-06-11T07:53:49.587Z,70.30
2018-06-11T07:56:19.282Z,69.90
2018-06-11T07:58:48.977Z,70.60
2018-06-11T08:01:18.672Z,70.90
2018-06-11T08:03:48.583Z,68.40
2018-06-11T08:06:18.259Z,68.00
2018-06-11T08:08:47.924Z,68.00
2018-06-11T08:11:17.599Z,68.40
2018-06-11T08:13:47.271Z,69.30
2018-06-11T08:16:16.951Z,68.10
2018-06-11T08:18:46.607Z,66.70
2018-06-11T08:21:16.292Z,66.60
2018-06-11T08:26:15.235Z,67.90
2018-06-11T08:28:44.878Z,65.50
2018-06-11T08:31:14.567Z,67.50
2018-06-11T08:33:44.286Z,68.30
2018-06-11T08:36:14.139Z,67.70
2018-06-11T08:38:43.819Z,68.60
2018-06-11T08:41:13.503Z,67.70
2018-06-11T08:43:43.199Z,66.30
2018-06-11T08:46:12.897Z,64.80
2018-06-11T08:48:42.604Z,64.50
2018-06-11T08:51:12.289Z,64.00
2018-06-11T08:53:41.947Z,64.20
2018-06-11T08:56:11.635Z,64.90
2018-06-11T08:58:41.036Z,65.30
2018-06-11T09:01:10.824Z,65.20
2018-06-11T09:03:40.204Z,64.50
2018-06-11T09:06:09.908Z,64.70
2018-06-11T09:08:39.315Z,64.50
2018-06-11T09:11:09.007Z,63.60
2018-06-11T09:13:38.690Z,62.10
2018-06-11T09:16:08.126Z,62.70
2018-06-11T09:18:37.496Z,62.20
2018-06-11T09:21:08.012Z,60.80
2018-06-11T09:23:37.531Z,60.60
2018-06-11T09:26:06.952Z,63.00
2018-06-11T09:28:36.323Z,63.00
2018-06-11T09:31:06.573Z,62.90
2018-06-11T09:33:36.110Z,60.00
2018-06-11T09:36:05.620Z,60.10
2018-06-11T09:38:35.031Z,60.30
2018-06-11T09:41:04.781Z,60.00
2018-06-11T09:43:34.460Z,59.80
2018-06-11T09:46:04.167Z,61.00
2018-06-11T09:48:33.897Z,57.30
2018-06-11T09:51:03.983Z,58.60
2018-06-11T09:53:33.671Z,58.60
2018-06-11T09:56:03.391Z,58.40
2018-06-11T09:58:33.118Z,58.20
2018-06-11T10:01:02.808Z,59.20
2018-06-11T10:03:32.536Z,57.80
2018-06-11T10:06:02.237Z,58.00
2018-06-11T10:08:31.960Z,59.10
2018-06-11T10:11:01.756Z,59.60
2018-06-11T10:13:31.538Z,58.30
2018-06-11T10:16:01.380Z,57.30
2018-06-11T10:18:31.084Z,59.80
2018-06-11T10:21:00.773Z,58.00
2018-06-11T10:23:30.479Z,58.00
2018-06-11T10:26:00.200Z,57.80
2018-06-11T10:28:29.620Z,57.50
2018-06-11T10:30:59.295Z,57.50
2018-06-11T10:33:28.979Z,59.70
2018-06-11T10:35:58.663Z,58.70
2018-06-11T10:38:28.379Z,59.60
2018-06-11T10:40:57.763Z,58.50
2018-06-11T10:43:27.456Z,57.50
2018-06-11T10:46:02.731Z,57.40
2018-06-11T10:48:32.098Z,57.90
2018-06-11T10:51:01.488Z,57.00
2018-06-11T10:53:30.900Z,57.20
2018-06-11T10:56:00.280Z,59.20
2018-06-11T10:58:29.712Z,59.10
2018-06-11T11:00:59.196Z,57.30
2018-06-11T11:03:28.609Z,57.80
2018-06-11T11:05:58.012Z,57.10
2018-06-11T11:08:27.422Z,58.30
2018-06-11T11:10:56.853Z,58.70
2018-06-11T11:13:26.265Z,57.20
2018-06-11T11:15:55.640Z,57.40
2018-06-11T11:18:25.060Z,56.10
2018-06-11T11:20:54.472Z,55.80
2018-06-11T11:23:23.859Z,56.70
2018-06-11T11:25:55.272Z,56.70
2018-06-11T11:28:24.783Z,57.80
2018-06-11T11:30:54.650Z,57.80
2018-06-11T11:33:24.129Z,58.00
2018-06-11T11:35:53.812Z,57.30
2018-06-11T11:38:23.223Z,56.90
2018-06-11T11:40:52.608Z,57.20
2018-06-11T11:43:22.009Z,55.70
2018-06-11T11:45:59.781Z,55.50
2018-06-11T11:48:37.149Z,56.40
2018-06-11T11:51:10.359Z,56.30
2018-06-11T11:53:41.932Z,55.60
2018-06-11T11:56:13.581Z,56.10
2018-06-11T11:58:45.407Z,54.50
2018-06-11T12:01:15.591Z,54.90
2018-06-11T12:03:47.012Z,55.80
2018-06-11T12:06:17.016Z,55.70
2018-06-11T12:08:47.908Z,55.30
2018-06-11T12:11:17.825Z,55.10
2018-06-11T12:13:48.950Z,55.00
2018-06-11T12:16:19.904Z,55.70
2018-06-11T12:18:49.954Z,56.40
2018-06-11T12:21:19.356Z,55.50
2018-06-11T12:23:48.751Z,55.40
2018-06-11T12:26:18.187Z,55.80
2018-06-11T12:28:47.595Z,54.70
2018-06-11T12:31:17.027Z,54.60
2018-06-11T12:33:46.603Z,55.40
2018-06-11T12:36:16.004Z,55.50
2018-06-11T12:38:47.711Z,54.60
2018-06-11T12:41:17.406Z,55.00
2018-06-11T12:43:47.144Z,55.80
2018-06-11T12:46:16.590Z,54.60
2018-06-11T12:48:46.275Z,55.00
2018-06-11T12:51:16.763Z,54.70
2018-06-11T12:53:46.187Z,55.60
2018-06-11T12:56:15.645Z,56.00
2018-06-11T12:58:45.425Z,54.60
2018-06-11T13:01:14.879Z,56.50
2018-06-11T13:03:48.173Z,55.80
2018-06-11T13:06:20.204Z,55.20
2018-06-11T13:08:50.202Z,56.30
2018-06-11T13:11:19.602Z,55.30
2018-06-11T13:13:49.023Z,53.90
2018-06-11T13:16:18.456Z,53.30
2018-06-11T13:18:47.860Z,54.10
2018-06-11T13:21:17.396Z,52.60
2018-06-11T13:23:46.791Z,52.30
2018-06-11T13:26:16.299Z,52.60
2018-06-11T13:28:46.595Z,53.10
2018-06-11T13:31:16.028Z,52.90
2018-06-11T13:33:45.411Z,53.70
2018-06-11T13:36:14.843Z,53.70
2018-06-11T13:38:44.631Z,53.40
2018-06-11T13:41:14.324Z,52.80
2018-06-11T13:43:43.724Z,53.60
2018-06-11T13:46:13.134Z,51.90
2018-06-11T13:48:42.539Z,53.40
2018-06-11T13:51:11.939Z,52.80
2018-06-11T13:53:41.647Z,52.20
2018-06-11T13:56:11.047Z,52.20
2018-06-11T13:58:40.889Z,52.50
2018-06-11T14:01:10.395Z,52.00
2018-06-11T14:03:39.763Z,50.30
2018-06-11T14:06:09.796Z,52.50
2018-06-11T14:08:39.188Z,51.40
2018-06-11T14:11:08.586Z,53.10
2018-06-11T14:13:38.290Z,50.90
2018-06-11T14:16:08.033Z,50.30
2018-06-11T14:18:37.452Z,50.10
2018-06-11T14:21:06.912Z,51.10
2018-06-11T14:23:36.351Z,50.20
2018-06-11T14:26:05.820Z,51.10
2018-06-11T14:28:35.276Z,52.00
2018-06-11T14:31:05.003Z,49.80
2018-06-11T14:33:36.797Z,52.90
2018-06-11T14:36:06.263Z,52.20
2018-06-11T14:38:35.672Z,50.90
2018-06-11T14:41:05.147Z,51.20
2018-06-11T14:43:34.720Z,50.20
2018-06-11T14:46:04.160Z,49.80
2018-06-11T14:48:33.556Z,50.10
2018-06-11T14:51:03.028Z,49.80
2018-06-11T14:53:32.496Z,49.30
2018-06-11T14:56:01.923Z,49.90
2018-06-11T14:58:31.356Z,48.50
2018-06-11T15:01:00.746Z,48.70
2018-06-11T15:03:31.480Z,47.70
2018-06-11T15:06:03.768Z,49.10
2018-06-11T15:08:33.143Z,49.50
2018-06-11T15:11:02.635Z,48.60
2018-06-11T15:13:32.308Z,49.20
2018-06-11T15:16:01.713Z,52.70
2018-06-11T15:18:31.172Z,53.90
2018-06-11T15:21:00.648Z,54.90
2018-06-11T15:23:30.492Z,55.10
2018-06-11T15:25:59.915Z,55.00
2018-06-11T15:28:29.952Z,55.30
2018-06-11T15:30:59.627Z,55.50
2018-06-11T15:33:29.330Z,56.50
2018-06-11T15:35:59.383Z,59.40
2018-06-11T15:38:29.047Z,60.90
2018-06-11T15:40:58.732Z,62.70
2018-06-11T15:43:28.586Z,63.80
2018-06-11T15:46:00.241Z,65.00
2018-06-11T15:48:29.674Z,66.40
2018-06-11T15:51:00.250Z,67.20
2018-06-11T15:53:29.951Z,71.20
2018-06-11T15:55:59.627Z,73.60
2018-06-11T15:58:29.383Z,74.50
2018-06-11T16:00:59.898Z,75.90
2018-06-11T16:03:29.574Z,78.00
2018-06-11T16:05:59.592Z,80.20
2018-06-11T16:08:30.210Z,78.60
2018-06-11T16:10:59.935Z,78.70
2018-06-11T16:13:29.647Z,77.50
2018-06-11T16:15:59.369Z,77.70
2018-06-11T16:18:29.053Z,79.40
2018-06-11T16:20:58.929Z,80.10
2018-06-11T16:23:28.599Z,78.00
2018-06-11T16:25:58.311Z,78.20
2018-06-11T16:28:28.271Z,77.50
2018-06-11T16:30:57.923Z,76.70
2018-06-11T16:33:27.606Z,76.80
2018-06-11T16:35:57.256Z,78.00
2018-06-11T16:38:26.918Z,77.60
2018-06-11T16:40:56.600Z,78.00
2018-06-11T16:45:55.920Z,78.00
2018-06-11T16:48:25.595Z,79.30
2018-06-11T16:50:55.243Z,78.50
2018-06-11T16:53:24.911Z,78.00
2018-06-11T16:55:54.575Z,78.20
2018-06-11T16:58:24.291Z,79.00
2018-06-11T17:00:54.200Z,77.20
2018-06-11T17:03:23.907Z,78.80
2018-06-11T17:05:53.621Z,80.80
2018-06-11T17:08:23.311Z,78.80
2018-06-11T17:10:53.079Z,81.10
2018-06-11T17:13:23.075Z,82.70
2018-06-11T17:15:52.860Z,82.40
2018-06-11T17:18:22.655Z,82.30
2018-06-11T17:20:52.339Z,82.20
2018-06-11T17:23:22.060Z,81.40
2018-06-11T17:25:51.763Z,81.40
2018-06-11T17:28:21.776Z,80.50
2018-06-11T17:30:51.499Z,82.70
2018-06-11T17:33:21.555Z,82.10
2018-06-11T17:35:51.276Z,82.30
2018-06-11T17:38:20.963Z,80.30
2018-06-11T17:40:51.249Z,80.50
2018-06-11T17:43:20.957Z,79.70
2018-06-11T17:45:50.652Z,79.90
2018-06-11T17:48:20.319Z,81.60
2018-06-11T17:50:50.006Z,83.30
2018-06-11T17:53:19.923Z,82.70
2018-06-11T17:55:49.709Z,82.90
2018-06-11T17:58:19.406Z,81.20
2018-06-11T18:00:49.180Z,83.50
2018-06-11T18:03:19.032Z,83.60
2018-06-11T18:05:48.730Z,83.10
2018-06-11T18:08:18.439Z,84.90
2018-06-11T18:10:48.131Z,86.00
2018-06-11T18:13:17.799Z,85.00
2018-06-11T18:15:47.475Z,84.30
2018-06-11T18:18:17.147Z,84.90
2018-06-11T18:20:46.852Z,85.10
2018-06-11T18:23:16.523Z,84.50
2018-06-11T18:25:46.232Z,84.70
2018-06-11T18:28:16.215Z,85.40
2018-06-11T18:30:47.645Z,85.60
2018-06-11T18:33:17.782Z,85.90
2018-06-11T18:35:47.479Z,87.40
2018-06-11T18:38:17.322Z,87.80
2018-06-11T18:40:47.079Z,86.60
2018-06-11T18:43:17.055Z,87.00
2018-06-11T18:45:46.749Z,87.70
2018-06-11T18:48:16.470Z,87.70
2018-06-11T18:50:46.348Z,87.30
2018-06-11T18:53:16.032Z,87.80
2018-06-11T18:55:45.747Z,87.00
2018-06-11T18:58:15.451Z,87.10
2018-06-11T19:00:45.185Z,87.40
2018-06-11T19:03:14.852Z,87.70
2018-06-11T19:05:44.956Z,87.80
2018-06-11T19:08:14.944Z,88.00
2018-06-11T19:10:44.684Z,88.00
2018-06-11T19:13:14.363Z,87.70
2018-06-11T19:15:44.103Z,87.70
2018-06-11T19:18:13.795Z,88.50
2018-06-11T19:20:43.523Z,87.40
2018-06-11T19:23:13.215Z,87.50
2018-06-11T19:25:42.939Z,88.30
2018-06-11T19:28:12.602Z,88.40
2018-06-11T19:30:42.327Z,88.20
2018-06-11T19:33:12.173Z,89.10
2018-06-11T19:35:41.967Z,88.20
2018-06-11T19:38:11.687Z,88.30
2018-06-11T19:40:41.423Z,87.20
2018-06-11T19:43:11.288Z,87.70
2018-06-11T19:45:46.653Z,87.60
2018-06-11T19:48:16.350Z,87.50
2018-06-11T19:50:46.015Z,87.70
2018-06-11T19:53:15.716Z,88.90
2018-06-11T19:55:45.413Z,88.80
2018-06-11T20:00:45.112Z,88.50
2018-06-11T20:03:14.814Z,88.60
2018-06-11T20:05:44.496Z,88.50
2018-06-11T20:08:14.195Z,89.50
2018-06-11T20:10:43.870Z,89.40
2018-06-11T20:13:13.571Z,89.50
2018-06-11T20:15:43.260Z,89.40
2018-06-11T20:18:12.922Z,89.20
2018-06-11T20:20:42.699Z,89.20
2018-06-11T20:23:12.367Z,90.20
2018-06-11T20:25:42.115Z,90.00
2018-06-11T20:28:11.779Z,90.10
2018-06-11T20:30:41.475Z,89.90
2018-06-11T20:33:11.167Z,90.30
2018-06-11T20:35:40.889Z,90.30
2018-06-11T20:38:10.547Z,90.10
2018-06-11T20:40:40.251Z,90.20
2018-06-11T20:43:09.907Z,90.40
2018-06-11T20:45:45.795Z,90.50
2018-06-11T20:48:15.696Z,90.60
2018-06-11T20:50:46.186Z,90.60
2018-06-11T20:53:15.920Z,90.70
2018-06-11T20:55:45.643Z,90.30
2018-06-11T20:58:15.787Z,90.70
2018-06-11T21:00:45.444Z,90.90
2018-06-11T21:03:15.235Z,90.80
2018-06-11T21:05:44.952Z,91.10
2018-06-11T21:08:14.696Z,91.20
2018-06-11T21:10:44.399Z,90.90
2018-06-11T21:13:14.163Z,90.80
2018-06-11T21:15:43.843Z,90.80
2018-06-11T21:18:13.525Z,91.20
2018-06-11T21:20:43.548Z,91.30
2018-06-11T21:23:13.243Z,91.20
2018-06-11T21:25:42.959Z,91.00
2018-06-11T21:28:12.679Z,91.10
2018-06-11T21:30:42.368Z,91.00
2018-06-11T21:33:12.076Z,91.20
2018-06-11T21:35:41.755Z,91.30
2018-06-11T21:38:11.527Z,91.40
2018-06-11T21:40:41.247Z,91.60
2018-06-11T21:43:10.981Z,91.60
2018-06-11T21:45:40.707Z,91.60
2018-06-11T21:48:10.419Z,91.80
2018-06-11T21:50:40.104Z,91.40
2018-06-11T21:53:09.824Z,91.50
2018-06-11T21:55:39.529Z,91.80
2018-06-11T21:58:09.243Z,92.10
2018-06-11T22:00:39.004Z,91.70
2018-06-11T22:03:09.292Z,91.60
2018-06-11T22:05:38.979Z,91.60
2018-06-11T22:08:08.686Z,91.50
2018-06-11T22:10:38.375Z,91.50
2018-06-11T22:13:08.091Z,91.70
2018-06-11T22:15:38.177Z,91.50
2018-06-11T22:18:07.908Z,91.50
2018-06-11T22:20:37.603Z,91.50
2018-06-11T22:23:07.335Z,91.50
2018-06-11T22:25:37.027Z,91.40
2018-06-11T22:28:06.791Z,91.60
2018-06-11T22:30:36.499Z,92.10
2018-06-11T22:33:06.460Z,91.80
2018-06-11T22:35:36.135Z,91.80
2018-06-11T22:38:05.937Z,91.40
2018-06-11T22:40:35.627Z,91.70
2018-06-11T22:43:05.415Z,91.60
2018-06-11T22:45:40.703Z,91.40
2018-06-11T22:48:10.428Z,91.70
2018-06-11T22:50:40.139Z,91.80
2018-06-11T22:53:10.695Z,91.90
2018-06-11T22:55:40.391Z,91.80
2018-06-11T22:58:10.137Z,91.80
2018-06-11T23:00:39.839Z,91.90
2018-06-11T23:03:09.586Z,91.80
2018-06-11T23:05:39.418Z,91.70
2018-06-11T23:08:09.151Z,91.60
2018-06-11T23:10:38.850Z,91.70
2018-06-11T23:13:08.658Z,91.90
2018-06-11T23:15:38.367Z,92.00
2018-06-11T23:18:08.144Z,91.90
2018-06-11T23:20:37.840Z,92.10
2018-06-11T23:23:07.795Z,91.80
2018-06-11T23:25:37.498Z,91.60
2018-06-11T23:28:07.214Z,91.70
2018-06-11T23:30:37.348Z,92.00
2018-06-11T23:33:07.079Z,91.90
2018-06-11T23:35:36.808Z,91.70
2018-06-11T23:38:06.565Z,91.70
2018-06-11T23:40:36.332Z,91.60
2018-06-11T23:43:06.044Z,91.80
2018-06-11T23:45:35.768Z,91.80
2018-06-11T23:48:05.499Z,92.00
2018-06-11T23:50:35.214Z,91.90
2018-06-11T23:53:05.267Z,91.90
2018-06-11T23:55:34.994Z,91.90
2018-06-11T23:58:04.847Z,92.00
